sensor_id;sensor_type;location;lat;lon;timestamp;temperature;humidity
15394;DHT22;7795;47.986;11.868;2023-08-08T00:01:34;16.00;66.90
15394;DHT22;7795;47.986;11.868;2023-08-08T00:04:00;16.00;66.90
15394;DHT22;7795;47.986;11.868;2023-08-08T00:06:27;15.90;66.90
15394;DHT22;7795;47.986;11.868;2023-08-08T00:08:53;15.90;66.90
15394;DHT22;7795;47.986;11.868;2023-08-08T00:11:19;15.90;66.90
15394;DHT22;7795;47.986;11.868;2023-08-08T00:13:45;15.90;66.90
15394;DHT22;7795;47.986;11.868;2023-08-08T00:16:11;15.90;66.90
15394;DHT22;7795;47.986;11.868;2023-08-08T00:18:36;15.90;66.90
15394;DHT22;7795;47.986;11.868;2023-08-08T00:21:02;15.80;66.80
15394;DHT22;7795;47.986;11.868;2023-08-08T00:23:29;15.80;66.90
15394;DHT22;7795;47.986;11.868;2023-08-08T00:25:55;15.80;67.00
15394;DHT22;7795;47.986;11.868;2023-08-08T00:28:21;15.80;67.00
15394;DHT22;7795;47.986;11.868;2023-08-08T00:30:46;15.80;67.00
15394;DHT22;7795;47.986;11.868;2023-08-08T00:33:12;15.70;67.00
15394;DHT22;7795;47.986;11.868;2023-08-08T00:35:38;15.70;67.00
15394;DHT22;7795;47.986;11.868;2023-08-08T00:38:04;15.70;67.00
15394;DHT22;7795;47.986;11.868;2023-08-08T00:40:31;15.70;67.00
15394;DHT22;7795;47.986;11.868;2023-08-08T00:42:56;15.70;67.10
15394;DHT22;7795;47.986;11.868;2023-08-08T00:45:22;15.70;67.10
15394;DHT22;7795;47.986;11.868;2023-08-08T00:47:49;15.70;67.10
15394;DHT22;7795;47.986;11.868;2023-08-08T00:50:15;15.60;67.10
15394;DHT22;7795;47.986;11.868;2023-08-08T00:52:41;15.70;67.10
15394;DHT22;7795;47.986;11.868;2023-08-08T00:55:08;15.70;67.20
15394;DHT22;7795;47.986;11.868;2023-08-08T00:57:36;15.70;67.30
15394;DHT22;7795;47.986;11.868;2023-08-08T01:00:05;15.70;67.20
15394;DHT22;7795;47.986;11.868;2023-08-08T01:02:31;15.70;67.20
15394;DHT22;7795;47.986;11.868;2023-08-08T01:04:57;15.70;67.10
15394;DHT22;7795;47.986;11.868;2023-08-08T01:07:29;15.70;67.00
15394;DHT22;7795;47.986;11.868;2023-08-08T01:10:00;15.70;67.10
15394;DHT22;7795;47.986;11.868;2023-08-08T01:12:33;15.70;67.10
15394;DHT22;7795;47.986;11.868;2023-08-08T01:15:01;15.70;67.00
15394;DHT22;7795;47.986;11.868;2023-08-08T01:17:27;15.70;67.00
15394;DHT22;7795;47.986;11.868;2023-08-08T01:19:53;15.70;66.90
15394;DHT22;7795;47.986;11.868;2023-08-08T01:22:25;15.70;66.90
15394;DHT22;7795;47.986;11.868;2023-08-08T01:24:53;15.70;66.90
15394;DHT22;7795;47.986;11.868;2023-08-08T01:27:19;15.70;66.70
15394;DHT22;7795;47.986;11.868;2023-08-08T01:29:45;15.70;66.80
15394;DHT22;7795;47.986;11.868;2023-08-08T01:32:11;15.70;66.70
15394;DHT22;7795;47.986;11.868;2023-08-08T01:34:38;15.70;67.50
15394;DHT22;7795;47.986;11.868;2023-08-08T01:37:09;15.80;66.70
15394;DHT22;7795;47.986;11.868;2023-08-08T01:39:38;15.80;66.70
15394;DHT22;7795;47.986;11.868;2023-08-08T01:42:06;15.80;66.70
15394;DHT22;7795;47.986;11.868;2023-08-08T01:44:33;15.80;66.70
15394;DHT22;7795;47.986;11.868;2023-08-08T01:47:00;15.80;66.70
15394;DHT22;7795;47.986;11.868;2023-08-08T01:49:26;15.80;66.70
15394;DHT22;7795;47.986;11.868;2023-08-08T01:51:52;15.80;66.60
15394;DHT22;7795;47.986;11.868;2023-08-08T01:54:18;15.80;66.60
15394;DHT22;7795;47.986;11.868;2023-08-08T01:56:43;15.80;66.60
15394;DHT22;7795;47.986;11.868;2023-08-08T01:59:11;15.80;66.70
15394;DHT22;7795;47.986;11.868;2023-08-08T02:01:37;15.80;66.70
15394;DHT22;7795;47.986;11.868;2023-08-08T02:04:02;15.80;66.70
15394;DHT22;7795;47.986;11.868;2023-08-08T02:06:28;15.80;66.70
15394;DHT22;7795;47.986;11.868;2023-08-08T02:08:55;15.80;66.60
15394;DHT22;7795;47.986;11.868;2023-08-08T02:11:21;15.90;66.70
15394;DHT22;7795;47.986;11.868;2023-08-08T02:13:47;15.90;66.50
15394;DHT22;7795;47.986;11.868;2023-08-08T02:16:14;15.90;66.40
15394;DHT22;7795;47.986;11.868;2023-08-08T02:18:40;15.90;66.40
15394;DHT22;7795;47.986;11.868;2023-08-08T02:21:06;15.90;66.40
15394;DHT22;7795;47.986;11.868;2023-08-08T02:23:33;15.90;66.30
15394;DHT22;7795;47.986;11.868;2023-08-08T02:25:58;15.80;66.20
15394;DHT22;7795;47.986;11.868;2023-08-08T02:28:24;15.80;66.20
15394;DHT22;7795;47.986;11.868;2023-08-08T02:30:50;15.80;66.30
15394;DHT22;7795;47.986;11.868;2023-08-08T02:33:17;15.80;66.20
15394;DHT22;7795;47.986;11.868;2023-08-08T02:35:43;15.80;66.20
15394;DHT22;7795;47.986;11.868;2023-08-08T02:38:08;15.70;66.10
15394;DHT22;7795;47.986;11.868;2023-08-08T02:40:34;15.70;66.20
15394;DHT22;7795;47.986;11.868;2023-08-08T02:43:00;15.70;66.30
15394;DHT22;7795;47.986;11.868;2023-08-08T02:45:26;15.60;66.30
15394;DHT22;7795;47.986;11.868;2023-08-08T02:47:51;15.60;66.40
15394;DHT22;7795;47.986;11.868;2023-08-08T02:50:18;15.50;66.40
15394;DHT22;7795;47.986;11.868;2023-08-08T02:52:44;15.50;66.50
15394;DHT22;7795;47.986;11.868;2023-08-08T02:55:10;15.40;66.50
15394;DHT22;7795;47.986;11.868;2023-08-08T02:57:36;15.40;66.60
15394;DHT22;7795;47.986;11.868;2023-08-08T03:00:03;15.30;66.60
15394;DHT22;7795;47.986;11.868;2023-08-08T03:02:29;15.30;66.80
15394;DHT22;7795;47.986;11.868;2023-08-08T03:04:55;15.20;66.80
15394;DHT22;7795;47.986;11.868;2023-08-08T03:07:22;15.20;66.90
15394;DHT22;7795;47.986;11.868;2023-08-08T03:09:48;15.10;67.00
15394;DHT22;7795;47.986;11.868;2023-08-08T03:12:14;15.10;67.10
15394;DHT22;7795;47.986;11.868;2023-08-08T03:14:39;15.00;67.10
15394;DHT22;7795;47.986;11.868;2023-08-08T03:17:05;15.00;67.30
15394;DHT22;7795;47.986;11.868;2023-08-08T03:19:31;14.90;67.40
15394;DHT22;7795;47.986;11.868;2023-08-08T03:21:57;14.90;67.40
15394;DHT22;7795;47.986;11.868;2023-08-08T03:24:24;14.80;67.50
15394;DHT22;7795;47.986;11.868;2023-08-08T03:26:49;14.80;67.60
15394;DHT22;7795;47.986;11.868;2023-08-08T03:29:15;14.70;67.70
15394;DHT22;7795;47.986;11.868;2023-08-08T03:31:41;14.70;67.80
15394;DHT22;7795;47.986;11.868;2023-08-08T03:34:07;14.60;67.90
15394;DHT22;7795;47.986;11.868;2023-08-08T03:36:32;14.60;68.80
15394;DHT22;7795;47.986;11.868;2023-08-08T03:38:58;14.50;68.10
15394;DHT22;7795;47.986;11.868;2023-08-08T03:41:25;14.40;68.10
15394;DHT22;7795;47.986;11.868;2023-08-08T03:43:51;14.40;68.20
15394;DHT22;7795;47.986;11.868;2023-08-08T03:46:17;14.40;68.30
15394;DHT22;7795;47.986;11.868;2023-08-08T03:48:42;14.30;68.40
15394;DHT22;7795;47.986;11.868;2023-08-08T03:51:08;14.30;68.40
15394;DHT22;7795;47.986;11.868;2023-08-08T03:53:34;14.20;68.50
15394;DHT22;7795;47.986;11.868;2023-08-08T03:56:00;14.20;68.70
15394;DHT22;7795;47.986;11.868;2023-08-08T03:58:27;14.20;68.80
15394;DHT22;7795;47.986;11.868;2023-08-08T04:00:52;14.10;69.00
15394;DHT22;7795;47.986;11.868;2023-08-08T04:03:18;14.10;69.10
15394;DHT22;7795;47.986;11.868;2023-08-08T04:05:44;14.10;69.20
15394;DHT22;7795;47.986;11.868;2023-08-08T04:08:13;14.00;69.40
15394;DHT22;7795;47.986;11.868;2023-08-08T04:10:39;14.00;69.50
15394;DHT22;7795;47.986;11.868;2023-08-08T04:13:04;14.00;69.70
15394;DHT22;7795;47.986;11.868;2023-08-08T04:15:31;14.00;69.80
15394;DHT22;7795;47.986;11.868;2023-08-08T04:17:57;14.00;70.00
15394;DHT22;7795;47.986;11.868;2023-08-08T04:20:23;14.00;70.00
15394;DHT22;7795;47.986;11.868;2023-08-08T04:22:49;14.00;70.10
15394;DHT22;7795;47.986;11.868;2023-08-08T04:25:15;14.00;70.20
15394;DHT22;7795;47.986;11.868;2023-08-08T04:27:41;14.00;70.30
15394;DHT22;7795;47.986;11.868;2023-08-08T04:30:07;14.00;70.40
15394;DHT22;7795;47.986;11.868;2023-08-08T04:32:35;14.10;70.70
15394;DHT22;7795;47.986;11.868;2023-08-08T04:35:00;14.10;70.80
15394;DHT22;7795;47.986;11.868;2023-08-08T04:37:26;14.10;70.80
15394;DHT22;7795;47.986;11.868;2023-08-08T04:39:52;14.10;70.90
15394;DHT22;7795;47.986;11.868;2023-08-08T04:42:18;14.10;71.00
15394;DHT22;7795;47.986;11.868;2023-08-08T04:44:43;14.10;71.00
15394;DHT22;7795;47.986;11.868;2023-08-08T04:47:09;14.20;71.10
15394;DHT22;7795;47.986;11.868;2023-08-08T04:49:36;14.20;71.10
15394;DHT22;7795;47.986;11.868;2023-08-08T04:52:02;14.20;71.20
15394;DHT22;7795;47.986;11.868;2023-08-08T04:54:28;14.30;71.10
15394;DHT22;7795;47.986;11.868;2023-08-08T04:56:54;14.30;71.10
15394;DHT22;7795;47.986;11.868;2023-08-08T04:59:20;14.40;71.10
15394;DHT22;7795;47.986;11.868;2023-08-08T05:01:45;14.40;70.90
15394;DHT22;7795;47.986;11.868;2023-08-08T05:04:11;14.50;70.80
15394;DHT22;7795;47.986;11.868;2023-08-08T05:06:38;14.60;70.80
15394;DHT22;7795;47.986;11.868;2023-08-08T05:09:04;14.60;70.60
15394;DHT22;7795;47.986;11.868;2023-08-08T05:11:30;14.70;70.40
15394;DHT22;7795;47.986;11.868;2023-08-08T05:13:55;14.70;70.30
15394;DHT22;7795;47.986;11.868;2023-08-08T05:16:21;14.80;70.20
15394;DHT22;7795;47.986;11.868;2023-08-08T05:18:48;14.80;70.10
15394;DHT22;7795;47.986;11.868;2023-08-08T05:21:14;14.90;70.10
15394;DHT22;7795;47.986;11.868;2023-08-08T05:23:41;15.00;70.00
15394;DHT22;7795;47.986;11.868;2023-08-08T05:26:07;15.00;69.90
15394;DHT22;7795;47.986;11.868;2023-08-08T05:28:32;15.10;69.80
15394;DHT22;7795;47.986;11.868;2023-08-08T05:30:58;15.10;69.70
15394;DHT22;7795;47.986;11.868;2023-08-08T05:33:24;15.20;69.60
15394;DHT22;7795;47.986;11.868;2023-08-08T05:35:50;15.30;69.50
15394;DHT22;7795;47.986;11.868;2023-08-08T05:38:16;15.30;70.10
15394;DHT22;7795;47.986;11.868;2023-08-08T05:40:43;15.30;69.20
15394;DHT22;7795;47.986;11.868;2023-08-08T05:43:08;15.40;69.10
15394;DHT22;7795;47.986;11.868;2023-08-08T05:45:34;15.40;69.10
15394;DHT22;7795;47.986;11.868;2023-08-08T05:48:00;15.50;69.00
15394;DHT22;7795;47.986;11.868;2023-08-08T05:50:26;15.50;69.00
15394;DHT22;7795;47.986;11.868;2023-08-08T05:52:53;15.60;68.90
15394;DHT22;7795;47.986;11.868;2023-08-08T05:55:19;15.60;68.80
15394;DHT22;7795;47.986;11.868;2023-08-08T05:57:46;15.70;68.70
15394;DHT22;7795;47.986;11.868;2023-08-08T06:00:12;15.80;68.80
15394;DHT22;7795;47.986;11.868;2023-08-08T06:02:38;15.80;68.90
15394;DHT22;7795;47.986;11.868;2023-08-08T06:05:05;15.90;68.90
15394;DHT22;7795;47.986;11.868;2023-08-08T06:07:31;16.00;68.90
15394;DHT22;7795;47.986;11.868;2023-08-08T06:09:57;16.10;68.70
15394;DHT22;7795;47.986;11.868;2023-08-08T06:12:22;16.20;68.60
15394;DHT22;7795;47.986;11.868;2023-08-08T06:14:49;16.30;68.50
15394;DHT22;7795;47.986;11.868;2023-08-08T06:17:15;16.40;68.30
15394;DHT22;7795;47.986;11.868;2023-08-08T06:19:41;16.50;68.20
15394;DHT22;7795;47.986;11.868;2023-08-08T06:22:07;16.70;67.90
15394;DHT22;7795;47.986;11.868;2023-08-08T06:24:33;16.80;67.60
15394;DHT22;7795;47.986;11.868;2023-08-08T06:26:58;16.90;67.50
15394;DHT22;7795;47.986;11.868;2023-08-08T06:29:24;17.00;67.40
15394;DHT22;7795;47.986;11.868;2023-08-08T06:31:51;17.10;67.30
15394;DHT22;7795;47.986;11.868;2023-08-08T06:34:17;17.20;67.70
15394;DHT22;7795;47.986;11.868;2023-08-08T06:36:43;17.40;67.00
15394;DHT22;7795;47.986;11.868;2023-08-08T06:39:08;17.50;66.50
15394;DHT22;7795;47.986;11.868;2023-08-08T06:41:34;17.60;66.40
15394;DHT22;7795;47.986;11.868;2023-08-08T06:44:00;17.70;66.30
15394;DHT22;7795;47.986;11.868;2023-08-08T06:46:26;17.90;66.10
15394;DHT22;7795;47.986;11.868;2023-08-08T06:48:53;18.00;65.80
15394;DHT22;7795;47.986;11.868;2023-08-08T06:51:28;18.10;65.40
15394;DHT22;7795;47.986;11.868;2023-08-08T06:53:54;18.30;65.40
15394;DHT22;7795;47.986;11.868;2023-08-08T06:56:20;18.40;65.20
15394;DHT22;7795;47.986;11.868;2023-08-08T06:58:45;18.50;65.00
15394;DHT22;7795;47.986;11.868;2023-08-08T07:01:11;18.60;64.30
15394;DHT22;7795;47.986;11.868;2023-08-08T07:03:37;18.70;64.20
15394;DHT22;7795;47.986;11.868;2023-08-08T07:06:04;18.80;64.20
15394;DHT22;7795;47.986;11.868;2023-08-08T07:08:30;18.80;64.00
15394;DHT22;7795;47.986;11.868;2023-08-08T07:10:56;18.80;63.90
15394;DHT22;7795;47.986;11.868;2023-08-08T07:13:22;18.90;63.80
15394;DHT22;7795;47.986;11.868;2023-08-08T07:15:48;19.00;63.80
15394;DHT22;7795;47.986;11.868;2023-08-08T07:18:14;19.10;63.60
15394;DHT22;7795;47.986;11.868;2023-08-08T07:20:40;19.10;63.30
15394;DHT22;7795;47.986;11.868;2023-08-08T07:23:08;19.20;63.20
15394;DHT22;7795;47.986;11.868;2023-08-08T07:25:34;19.20;62.90
15394;DHT22;7795;47.986;11.868;2023-08-08T07:28:00;19.30;62.90
15394;DHT22;7795;47.986;11.868;2023-08-08T07:30:25;19.40;63.00
15394;DHT22;7795;47.986;11.868;2023-08-08T07:32:51;19.40;62.80
15394;DHT22;7795;47.986;11.868;2023-08-08T07:35:17;19.40;62.50
15394;DHT22;7795;47.986;11.868;2023-08-08T07:37:43;19.50;62.50
15394;DHT22;7795;47.986;11.868;2023-08-08T07:40:17;19.50;62.50
15394;DHT22;7795;47.986;11.868;2023-08-08T07:42:47;19.60;61.70
15394;DHT22;7795;47.986;11.868;2023-08-08T07:45:13;19.60;62.10
15394;DHT22;7795;47.986;11.868;2023-08-08T07:47:39;19.60;62.00
15394;DHT22;7795;47.986;11.868;2023-08-08T07:50:06;19.70;61.80
15394;DHT22;7795;47.986;11.868;2023-08-08T07:52:35;19.70;61.60
15394;DHT22;7795;47.986;11.868;2023-08-08T07:55:01;19.80;61.70
15394;DHT22;7795;47.986;11.868;2023-08-08T07:57:28;19.80;61.70
15394;DHT22;7795;47.986;11.868;2023-08-08T07:59:53;19.80;61.10
15394;DHT22;7795;47.986;11.868;2023-08-08T08:02:19;19.90;60.90
15394;DHT22;7795;47.986;11.868;2023-08-08T08:04:45;20.00;60.70
15394;DHT22;7795;47.986;11.868;2023-08-08T08:07:11;20.00;60.40
15394;DHT22;7795;47.986;11.868;2023-08-08T08:09:36;20.10;60.30
15394;DHT22;7795;47.986;11.868;2023-08-08T08:12:02;20.10;59.80
15394;DHT22;7795;47.986;11.868;2023-08-08T08:14:30;20.20;59.30
15394;DHT22;7795;47.986;11.868;2023-08-08T08:16:55;20.20;58.80
15394;DHT22;7795;47.986;11.868;2023-08-08T08:19:21;20.20;58.90
15394;DHT22;7795;47.986;11.868;2023-08-08T08:21:47;20.30;59.10
15394;DHT22;7795;47.986;11.868;2023-08-08T08:24:13;20.30;58.90
15394;DHT22;7795;47.986;11.868;2023-08-08T08:26:38;20.30;58.80
15394;DHT22;7795;47.986;11.868;2023-08-08T08:29:04;20.40;58.60
15394;DHT22;7795;47.986;11.868;2023-08-08T08:31:32;20.40;58.60
15394;DHT22;7795;47.986;11.868;2023-08-08T08:33:57;20.40;58.30
15394;DHT22;7795;47.986;11.868;2023-08-08T08:36:23;20.50;58.40
15394;DHT22;7795;47.986;11.868;2023-08-08T08:38:51;20.50;57.90
15394;DHT22;7795;47.986;11.868;2023-08-08T08:41:18;20.60;57.70
15394;DHT22;7795;47.986;11.868;2023-08-08T08:43:45;20.60;57.60
15394;DHT22;7795;47.986;11.868;2023-08-08T08:46:12;20.60;57.80
15394;DHT22;7795;47.986;11.868;2023-08-08T08:48:42;20.60;57.60
15394;DHT22;7795;47.986;11.868;2023-08-08T08:51:08;20.70;57.40
15394;DHT22;7795;47.986;11.868;2023-08-08T08:53:34;20.70;57.10
15394;DHT22;7795;47.986;11.868;2023-08-08T08:56:04;20.70;56.90
15394;DHT22;7795;47.986;11.868;2023-08-08T08:58:30;20.70;57.10
15394;DHT22;7795;47.986;11.868;2023-08-08T09:00:56;20.70;56.70
15394;DHT22;7795;47.986;11.868;2023-08-08T09:03:23;20.80;56.90
15394;DHT22;7795;47.986;11.868;2023-08-08T09:05:52;20.80;56.90
15394;DHT22;7795;47.986;11.868;2023-08-08T09:08:20;20.90;56.40
15394;DHT22;7795;47.986;11.868;2023-08-08T09:10:45;21.00;56.60
15394;DHT22;7795;47.986;11.868;2023-08-08T09:13:11;21.00;56.30
15394;DHT22;7795;47.986;11.868;2023-08-08T09:15:37;21.10;56.60
15394;DHT22;7795;47.986;11.868;2023-08-08T09:18:03;21.10;55.00
15394;DHT22;7795;47.986;11.868;2023-08-08T09:20:30;21.10;55.60
15394;DHT22;7795;47.986;11.868;2023-08-08T09:22:57;21.20;55.60
15394;DHT22;7795;47.986;11.868;2023-08-08T09:25:23;21.20;55.10
15394;DHT22;7795;47.986;11.868;2023-08-08T09:27:50;21.30;55.30
15394;DHT22;7795;47.986;11.868;2023-08-08T09:30:16;21.30;54.80
15394;DHT22;7795;47.986;11.868;2023-08-08T09:32:43;21.40;54.80
15394;DHT22;7795;47.986;11.868;2023-08-08T09:35:10;21.40;54.70
15394;DHT22;7795;47.986;11.868;2023-08-08T09:37:36;21.50;55.00
15394;DHT22;7795;47.986;11.868;2023-08-08T09:40:05;21.50;54.80
15394;DHT22;7795;47.986;11.868;2023-08-08T09:42:34;21.60;54.30
15394;DHT22;7795;47.986;11.868;2023-08-08T09:45:00;21.60;54.10
15394;DHT22;7795;47.986;11.868;2023-08-08T09:47:26;21.70;54.20
15394;DHT22;7795;47.986;11.868;2023-08-08T09:49:58;21.70;54.10
15394;DHT22;7795;47.986;11.868;2023-08-08T09:52:26;21.80;54.20
15394;DHT22;7795;47.986;11.868;2023-08-08T09:54:53;21.80;54.10
15394;DHT22;7795;47.986;11.868;2023-08-08T09:57:20;21.90;53.80
15394;DHT22;7795;47.986;11.868;2023-08-08T09:59:47;22.00;53.90
15394;DHT22;7795;47.986;11.868;2023-08-08T10:02:14;22.00;53.80
15394;DHT22;7795;47.986;11.868;2023-08-08T10:04:41;22.10;53.60
15394;DHT22;7795;47.986;11.868;2023-08-08T10:07:07;22.20;53.60
15394;DHT22;7795;47.986;11.868;2023-08-08T10:09:33;22.20;53.40
15394;DHT22;7795;47.986;11.868;2023-08-08T10:11:59;22.30;53.30
15394;DHT22;7795;47.986;11.868;2023-08-08T10:14:31;22.40;53.30
15394;DHT22;7795;47.986;11.868;2023-08-08T10:16:57;22.40;53.00
15394;DHT22;7795;47.986;11.868;2023-08-08T10:19:23;22.50;53.20
15394;DHT22;7795;47.986;11.868;2023-08-08T10:21:56;22.60;53.20
15394;DHT22;7795;47.986;11.868;2023-08-08T10:24:22;22.70;52.90
15394;DHT22;7795;47.986;11.868;2023-08-08T10:26:52;22.80;53.10
15394;DHT22;7795;47.986;11.868;2023-08-08T10:29:19;22.90;52.20
15394;DHT22;7795;47.986;11.868;2023-08-08T10:31:52;23.00;52.50
15394;DHT22;7795;47.986;11.868;2023-08-08T10:34:20;23.10;51.50
15394;DHT22;7795;47.986;11.868;2023-08-08T10:36:50;23.20;51.40
15394;DHT22;7795;47.986;11.868;2023-08-08T10:39:18;23.30;50.70
15394;DHT22;7795;47.986;11.868;2023-08-08T10:41:46;23.30;50.80
15394;DHT22;7795;47.986;11.868;2023-08-08T10:44:12;23.30;50.10
15394;DHT22;7795;47.986;11.868;2023-08-08T10:46:41;23.40;50.00
15394;DHT22;7795;47.986;11.868;2023-08-08T10:49:08;23.40;49.80
15394;DHT22;7795;47.986;11.868;2023-08-08T10:51:39;23.40;50.30
15394;DHT22;7795;47.986;11.868;2023-08-08T10:54:05;23.40;50.20
15394;DHT22;7795;47.986;11.868;2023-08-08T10:56:31;23.40;49.90
15394;DHT22;7795;47.986;11.868;2023-08-08T10:58:58;23.40;49.80
15394;DHT22;7795;47.986;11.868;2023-08-08T11:01:25;23.40;49.90
15394;DHT22;7795;47.986;11.868;2023-08-08T11:03:51;23.50;49.60
15394;DHT22;7795;47.986;11.868;2023-08-08T11:06:19;23.50;49.50
15394;DHT22;7795;47.986;11.868;2023-08-08T11:08:45;23.50;49.50
15394;DHT22;7795;47.986;11.868;2023-08-08T11:11:10;23.50;49.60
15394;DHT22;7795;47.986;11.868;2023-08-08T11:13:37;23.60;49.50
15394;DHT22;7795;47.986;11.868;2023-08-08T11:16:03;23.70;49.50
15394;DHT22;7795;47.986;11.868;2023-08-08T11:18:30;23.70;49.00
15394;DHT22;7795;47.986;11.868;2023-08-08T11:20:56;23.70;48.60
15394;DHT22;7795;47.986;11.868;2023-08-08T11:23:23;23.80;48.40
15394;DHT22;7795;47.986;11.868;2023-08-08T11:25:49;23.80;47.50
15394;DHT22;7795;47.986;11.868;2023-08-08T11:28:16;23.90;47.50
15394;DHT22;7795;47.986;11.868;2023-08-08T11:30:43;23.90;47.20
15394;DHT22;7795;47.986;11.868;2023-08-08T11:33:09;23.90;47.30
15394;DHT22;7795;47.986;11.868;2023-08-08T11:35:36;23.90;47.50
15394;DHT22;7795;47.986;11.868;2023-08-08T11:38:03;24.00;47.50
15394;DHT22;7795;47.986;11.868;2023-08-08T11:40:31;24.10;47.60
15394;DHT22;7795;47.986;11.868;2023-08-08T11:42:58;24.10;47.20
15394;DHT22;7795;47.986;11.868;2023-08-08T11:45:24;24.20;47.20
15394;DHT22;7795;47.986;11.868;2023-08-08T11:47:52;24.30;47.20
15394;DHT22;7795;47.986;11.868;2023-08-08T11:50:20;24.30;46.80
15394;DHT22;7795;47.986;11.868;2023-08-08T11:52:49;24.40;46.60
15394;DHT22;7795;47.986;11.868;2023-08-08T11:55:15;24.40;46.40
15394;DHT22;7795;47.986;11.868;2023-08-08T11:57:44;24.40;46.20
15394;DHT22;7795;47.986;11.868;2023-08-08T12:00:11;24.50;45.60
15394;DHT22;7795;47.986;11.868;2023-08-08T12:02:41;24.50;45.60
15394;DHT22;7795;47.986;11.868;2023-08-08T12:05:08;24.50;45.40
15394;DHT22;7795;47.986;11.868;2023-08-08T12:07:35;24.50;45.30
15394;DHT22;7795;47.986;11.868;2023-08-08T12:10:06;24.50;45.50
15394;DHT22;7795;47.986;11.868;2023-08-08T12:12:32;24.50;44.80
15394;DHT22;7795;47.986;11.868;2023-08-08T12:15:06;24.40;45.20
15394;DHT22;7795;47.986;11.868;2023-08-08T12:17:32;24.40;45.20
15394;DHT22;7795;47.986;11.868;2023-08-08T12:19:59;24.50;45.30
15394;DHT22;7795;47.986;11.868;2023-08-08T12:22:25;24.50;45.10
15394;DHT22;7795;47.986;11.868;2023-08-08T12:24:50;24.50;45.30
15394;DHT22;7795;47.986;11.868;2023-08-08T12:27:16;24.50;45.30
15394;DHT22;7795;47.986;11.868;2023-08-08T12:29:42;24.50;45.20
15394;DHT22;7795;47.986;11.868;2023-08-08T12:32:09;24.50;45.40
15394;DHT22;7795;47.986;11.868;2023-08-08T12:34:35;24.60;44.90
15394;DHT22;7795;47.986;11.868;2023-08-08T12:37:01;24.60;44.90
15394;DHT22;7795;47.986;11.868;2023-08-08T12:39:28;24.60;44.90
15394;DHT22;7795;47.986;11.868;2023-08-08T12:41:53;24.70;45.10
15394;DHT22;7795;47.986;11.868;2023-08-08T12:44:19;24.70;45.00
15394;DHT22;7795;47.986;11.868;2023-08-08T12:46:45;24.70;44.90
15394;DHT22;7795;47.986;11.868;2023-08-08T12:49:12;24.80;45.00
15394;DHT22;7795;47.986;11.868;2023-08-08T12:51:38;24.80;44.40
15394;DHT22;7795;47.986;11.868;2023-08-08T12:54:04;24.80;43.90
15394;DHT22;7795;47.986;11.868;2023-08-08T12:56:29;24.80;43.90
15394;DHT22;7795;47.986;11.868;2023-08-08T12:58:55;24.80;43.80
15394;DHT22;7795;47.986;11.868;2023-08-08T13:01:21;24.80;43.70
15394;DHT22;7795;47.986;11.868;2023-08-08T13:03:47;24.80;43.20
15394;DHT22;7795;47.986;11.868;2023-08-08T13:06:14;24.80;43.70
15394;DHT22;7795;47.986;11.868;2023-08-08T13:08:39;24.80;43.30
15394;DHT22;7795;47.986;11.868;2023-08-08T13:11:05;24.80;43.10
15394;DHT22;7795;47.986;11.868;2023-08-08T13:13:31;24.80;42.80
15394;DHT22;7795;47.986;11.868;2023-08-08T13:15:57;24.80;42.70
15394;DHT22;7795;47.986;11.868;2023-08-08T13:18:23;24.80;42.50
15394;DHT22;7795;47.986;11.868;2023-08-08T13:20:48;24.80;42.70
15394;DHT22;7795;47.986;11.868;2023-08-08T13:23:16;24.80;42.90
15394;DHT22;7795;47.986;11.868;2023-08-08T13:25:41;24.80;42.50
15394;DHT22;7795;47.986;11.868;2023-08-08T13:28:08;24.80;42.50
15394;DHT22;7795;47.986;11.868;2023-08-08T13:30:33;24.80;42.60
15394;DHT22;7795;47.986;11.868;2023-08-08T13:33:00;24.90;42.20
15394;DHT22;7795;47.986;11.868;2023-08-08T13:35:26;24.90;42.30
15394;DHT22;7795;47.986;11.868;2023-08-08T13:37:52;24.90;41.60
15394;DHT22;7795;47.986;11.868;2023-08-08T13:40:21;24.90;41.80
15394;DHT22;7795;47.986;11.868;2023-08-08T13:42:47;24.90;41.60
15394;DHT22;7795;47.986;11.868;2023-08-08T13:45:13;24.90;41.90
15394;DHT22;7795;47.986;11.868;2023-08-08T13:47:39;24.90;41.70
15394;DHT22;7795;47.986;11.868;2023-08-08T13:50:06;24.90;41.20
15394;DHT22;7795;47.986;11.868;2023-08-08T13:52:33;24.90;40.70
15394;DHT22;7795;47.986;11.868;2023-08-08T13:54:59;24.90;40.50
15394;DHT22;7795;47.986;11.868;2023-08-08T13:57:26;24.90;40.60
15394;DHT22;7795;47.986;11.868;2023-08-08T13:59:52;24.90;40.70
15394;DHT22;7795;47.986;11.868;2023-08-08T14:02:18;24.80;40.40
15394;DHT22;7795;47.986;11.868;2023-08-08T14:04:44;24.80;40.60
15394;DHT22;7795;47.986;11.868;2023-08-08T14:07:10;24.80;41.10
15394;DHT22;7795;47.986;11.868;2023-08-08T14:09:36;24.80;40.70
15394;DHT22;7795;47.986;11.868;2023-08-08T14:12:02;24.80;41.00
15394;DHT22;7795;47.986;11.868;2023-08-08T14:14:30;24.80;41.10
15394;DHT22;7795;47.986;11.868;2023-08-08T14:16:56;24.80;40.60
15394;DHT22;7795;47.986;11.868;2023-08-08T14:19:22;24.80;40.70
15394;DHT22;7795;47.986;11.868;2023-08-08T14:21:48;24.80;40.30
15394;DHT22;7795;47.986;11.868;2023-08-08T14:24:14;24.80;40.50
15394;DHT22;7795;47.986;11.868;2023-08-08T14:26:40;24.80;40.30
15394;DHT22;7795;47.986;11.868;2023-08-08T14:29:06;24.80;40.40
15394;DHT22;7795;47.986;11.868;2023-08-08T14:31:33;24.80;40.30
15394;DHT22;7795;47.986;11.868;2023-08-08T14:33:58;24.80;40.40
15394;DHT22;7795;47.986;11.868;2023-08-08T14:36:24;24.80;40.20
15394;DHT22;7795;47.986;11.868;2023-08-08T14:38:50;24.90;40.10
15394;DHT22;7795;47.986;11.868;2023-08-08T14:41:16;24.90;39.90
15394;DHT22;7795;47.986;11.868;2023-08-08T14:43:41;24.90;39.50
15394;DHT22;7795;47.986;11.868;2023-08-08T14:46:07;24.90;39.60
15394;DHT22;7795;47.986;11.868;2023-08-08T14:48:34;24.90;39.90
15394;DHT22;7795;47.986;11.868;2023-08-08T14:51:01;24.90;40.00
15394;DHT22;7795;47.986;11.868;2023-08-08T14:53:27;25.00;40.50
15394;DHT22;7795;47.986;11.868;2023-08-08T14:55:53;25.00;39.90
15394;DHT22;7795;47.986;11.868;2023-08-08T14:58:19;25.00;40.10
15394;DHT22;7795;47.986;11.868;2023-08-08T15:00:44;25.10;40.00
15394;DHT22;7795;47.986;11.868;2023-08-08T15:03:10;25.10;39.70
15394;DHT22;7795;47.986;11.868;2023-08-08T15:05:37;25.10;39.20
15394;DHT22;7795;47.986;11.868;2023-08-08T15:08:03;25.10;39.20
15394;DHT22;7795;47.986;11.868;2023-08-08T15:10:29;25.00;39.40
15394;DHT22;7795;47.986;11.868;2023-08-08T15:12:55;25.10;40.40
15394;DHT22;7795;47.986;11.868;2023-08-08T15:15:20;25.00;39.30
15394;DHT22;7795;47.986;11.868;2023-08-08T15:17:48;25.00;39.60
15394;DHT22;7795;47.986;11.868;2023-08-08T15:20:14;25.00;39.80
15394;DHT22;7795;47.986;11.868;2023-08-08T15:22:41;25.10;39.60
15394;DHT22;7795;47.986;11.868;2023-08-08T15:25:07;25.10;39.40